sensor_id;sensor_type;location;lat;lon;timestamp;P1;durP1;ratioP1;P2;durP2;ratioP2
9264;SDS011;4669;49.594;10.958;2023-05-15T04:29:07;7.55;;;6.85;;
9264;SDS011;4669;49.594;10.958;2023-05-15T04:34:09;8.35;;;7.47;;
9264;SDS011;4669;49.594;10.958;2023-05-15T04:39:11;7.78;;;6.97;;
9264;SDS011;4669;49.594;10.958;2023-05-15T04:44:14;11.73;;;6.65;;
9264;SDS011;4669;49.594;10.958;2023-05-15T04:49:17;8.18;;;7.38;;
9264;SDS011;4669;49.594;10.958;2023-05-15T04:54:19;8.18;;;7.57;;
9264;SDS011;4669;49.594;10.958;2023-05-15T04:59:22;28.65;;;20.08;;
9264;SDS011;4669;49.594;10.958;2023-05-15T05:04:26;8.32;;;7.47;;
9264;SDS011;4669;49.594;10.958;2023-05-15T05:09:28;8.38;;;7.68;;
9264;SDS011;4669;49.594;10.958;2023-05-15T05:14:32;8.52;;;7.82;;
9264;SDS011;4669;49.594;10.958;2023-05-15T05:19:34;9.40;;;8.40;;
9264;SDS011;4669;49.594;10.958;2023-05-15T05:24:36;9.07;;;8.18;;
9264;SDS011;4669;49.594;10.958;2023-05-15T05:29:39;8.52;;;7.72;;
9264;SDS011;4669;49.594;10.958;2023-05-15T05:34:41;8.38;;;7.55;;
9264;SDS011;4669;49.594;10.958;2023-05-15T05:39:43;8.52;;;7.70;;
9264;SDS011;4669;49.594;10.958;2023-05-15T05:44:47;8.88;;;8.00;;
9264;SDS011;4669;49.594;10.958;2023-05-15T05:49:49;11.63;;;7.88;;
9264;SDS011;4669;49.594;10.958;2023-05-15T05:54:51;9.95;;;8.63;;
9264;SDS011;4669;49.594;10.958;2023-05-15T05:59:54;9.82;;;8.80;;
9264;SDS011;4669;49.594;10.958;2023-05-15T06:04:56;8.93;;;8.02;;
9264;SDS011;4669;49.594;10.958;2023-05-15T06:09:58;9.15;;;8.35;;
9264;SDS011;4669;49.594;10.958;2023-05-15T06:15:02;8.57;;;7.72;;
9264;SDS011;4669;49.594;10.958;2023-05-15T06:20:05;9.18;;;8.20;;
9264;SDS011;4669;49.594;10.958;2023-05-15T06:25:09;7.90;;;7.20;;
9264;SDS011;4669;49.594;10.958;2023-05-15T06:30:14;8.73;;;7.82;;
9264;SDS011;4669;49.594;10.958;2023-05-15T06:35:16;8.07;;;7.40;;
9264;SDS011;4669;49.594;10.958;2023-05-15T06:40:19;8.65;;;7.85;;
9264;SDS011;4669;49.594;10.958;2023-05-15T06:45:22;9.27;;;8.05;;
9264;SDS011;4669;49.594;10.958;2023-05-15T06:50:26;9.65;;;7.60;;
9264;SDS011;4669;49.594;10.958;2023-05-15T06:55:28;9.88;;;6.32;;
9264;SDS011;4669;49.594;10.958;2023-05-15T07:00:31;7.65;;;5.93;;
9264;SDS011;4669;49.594;10.958;2023-05-15T07:05:33;6.13;;;5.53;;
9264;SDS011;4669;49.594;10.958;2023-05-15T07:10:35;7.65;;;6.32;;
9264;SDS011;4669;49.594;10.958;2023-05-15T07:15:39;6.20;;;5.68;;
9264;SDS011;4669;49.594;10.958;2023-05-15T07:20:41;7.25;;;5.68;;
9264;SDS011;4669;49.594;10.958;2023-05-15T07:25:43;6.30;;;5.70;;
9264;SDS011;4669;49.594;10.958;2023-05-15T07:30:46;6.65;;;6.00;;
9264;SDS011;4669;49.594;10.958;2023-05-15T07:35:49;5.88;;;5.38;;
9264;SDS011;4669;49.594;10.958;2023-05-15T07:40:51;6.05;;;5.45;;
9264;SDS011;4669;49.594;10.958;2023-05-15T07:45:54;5.38;;;4.88;;
9264;SDS011;4669;49.594;10.958;2023-05-15T07:50:56;5.93;;;5.22;;
9264;SDS011;4669;49.594;10.958;2023-05-15T07:55:58;5.32;;;4.75;;
9264;SDS011;4669;49.594;10.958;2023-05-15T08:01:02;4.43;;;4.13;;
9264;SDS011;4669;49.594;10.958;2023-05-15T08:06:04;4.88;;;4.38;;
9264;SDS011;4669;49.594;10.958;2023-05-15T08:11:07;5.40;;;4.65;;
9264;SDS011;4669;49.594;10.958;2023-05-15T08:16:10;5.85;;;5.25;;
9264;SDS011;4669;49.594;10.958;2023-05-15T08:21:12;7.20;;;5.80;;
9264;SDS011;4669;49.594;10.958;2023-05-15T08:26:15;8.25;;;4.45;;
9264;SDS011;4669;49.594;10.958;2023-05-15T08:31:18;7.20;;;6.32;;
9264;SDS011;4669;49.594;10.958;2023-05-15T08:36:20;8.10;;;5.70;;
9264;SDS011;4669;49.594;10.958;2023-05-15T08:41:25;6.95;;;6.25;;
9264;SDS011;4669;49.594;10.958;2023-05-15T08:46:34;6.75;;;6.03;;
9264;SDS011;4669;49.594;10.958;2023-05-15T08:51:36;6.88;;;6.18;;
9264;SDS011;4669;49.594;10.958;2023-05-15T08:56:39;5.90;;;5.05;;
9264;SDS011;4669;49.594;10.958;2023-05-15T09:01:43;6.18;;;5.35;;
9264;SDS011;4669;49.594;10.958;2023-05-15T09:06:46;6.93;;;6.05;;
9264;SDS011;4669;49.594;10.958;2023-05-15T09:11:48;7.07;;;5.07;;
9264;SDS011;4669;49.594;10.958;2023-05-15T09:16:53;4.53;;;4.13;;
9264;SDS011;4669;49.594;10.958;2023-05-15T09:21:55;4.88;;;4.47;;
9264;SDS011;4669;49.594;10.958;2023-05-15T09:27:16;5.75;;;5.07;;
9264;SDS011;4669;49.594;10.958;2023-05-15T09:32:20;6.18;;;5.57;;
9264;SDS011;4669;49.594;10.958;2023-05-15T09:37:33;7.38;;;5.22;;
9264;SDS011;4669;49.594;10.958;2023-05-15T09:42:35;6.57;;;5.97;;
9264;SDS011;4669;49.594;10.958;2023-05-15T09:47:39;6.15;;;4.70;;
9264;SDS011;4669;49.594;10.958;2023-05-15T09:52:41;5.07;;;4.55;;
9264;SDS011;4669;49.594;10.958;2023-05-15T09:57:43;7.80;;;5.00;;
9264;SDS011;4669;49.594;10.958;2023-05-15T10:02:47;4.40;;;4.00;;
9264;SDS011;4669;49.594;10.958;2023-05-15T10:07:50;4.53;;;4.10;;
9264;SDS011;4669;49.594;10.958;2023-05-15T10:12:55;5.40;;;4.88;;
9264;SDS011;4669;49.594;10.958;2023-05-15T10:18:00;5.18;;;4.70;;
9264;SDS011;4669;49.594;10.958;2023-05-15T10:23:04;4.80;;;4.40;;
9264;SDS011;4669;49.594;10.958;2023-05-15T10:28:11;5.28;;;4.78;;
9264;SDS011;4669;49.594;10.958;2023-05-15T10:33:15;5.88;;;4.90;;
9264;SDS011;4669;49.594;10.958;2023-05-15T10:38:18;5.07;;;4.28;;
9264;SDS011;4669;49.594;10.958;2023-05-15T10:43:21;8.45;;;4.10;;
9264;SDS011;4669;49.594;10.958;2023-05-15T10:48:25;5.47;;;4.40;;
9264;SDS011;4669;49.594;10.958;2023-05-15T10:53:28;4.72;;;4.25;;
9264;SDS011;4669;49.594;10.958;2023-05-15T10:58:31;5.00;;;4.60;;
9264;SDS011;4669;49.594;10.958;2023-05-15T11:03:35;5.22;;;4.75;;
9264;SDS011;4669;49.594;10.958;2023-05-15T11:08:38;6.15;;;5.00;;
9264;SDS011;4669;49.594;10.958;2023-05-15T11:24:45;6.65;;;4.47;;
9264;SDS011;4669;49.594;10.958;2023-05-15T11:30:02;3.70;;;3.40;;
9264;SDS011;4669;49.594;10.958;2023-05-15T11:35:10;3.95;;;3.65;;
9264;SDS011;4669;49.594;10.958;2023-05-15T11:40:13;5.03;;;3.95;;
9264;SDS011;4669;49.594;10.958;2023-05-15T11:45:19;5.40;;;4.90;;
9264;SDS011;4669;49.594;10.958;2023-05-15T11:55:56;4.47;;;3.70;;
9264;SDS011;4669;49.594;10.958;2023-05-15T12:00:59;4.57;;;3.95;;
9264;SDS011;4669;49.594;10.958;2023-05-15T12:06:03;5.57;;;4.18;;
9264;SDS011;4669;49.594;10.958;2023-05-15T12:11:05;7.38;;;6.40;;
9264;SDS011;4669;49.594;10.958;2023-05-15T12:16:07;5.32;;;3.60;;
9264;SDS011;4669;49.594;10.958;2023-05-15T12:21:10;4.32;;;3.88;;
9264;SDS011;4669;49.594;10.958;2023-05-15T12:26:13;4.07;;;3.53;;
9264;SDS011;4669;49.594;10.958;2023-05-15T12:31:15;4.70;;;3.55;;
9264;SDS011;4669;49.594;10.958;2023-05-15T12:36:20;4.40;;;4.00;;
9264;SDS011;4669;49.594;10.958;2023-05-15T12:41:25;3.83;;;3.53;;
9264;SDS011;4669;49.594;10.958;2023-05-15T12:46:28;4.03;;;3.70;;
9264;SDS011;4669;49.594;10.958;2023-05-15T12:51:33;3.72;;;3.42;;
9264;SDS011;4669;49.594;10.958;2023-05-15T12:56:42;5.03;;;3.17;;
9264;SDS011;4669;49.594;10.958;2023-05-15T13:01:44;3.00;;;2.70;;
9264;SDS011;4669;49.594;10.958;2023-05-15T13:06:47;4.07;;;3.08;;
9264;SDS011;4669;49.594;10.958;2023-05-15T13:11:49;5.32;;;3.92;;
9264;SDS011;4669;49.594;10.958;2023-05-15T13:16:51;3.63;;;3.28;;
9264;SDS011;4669;49.594;10.958;2023-05-15T13:21:55;6.60;;;3.60;;
9264;SDS011;4669;49.594;10.958;2023-05-15T13:26:57;6.32;;;4.47;;
9264;SDS011;4669;49.594;10.958;2023-05-15T13:31:59;5.75;;;3.35;;
9264;SDS011;4669;49.594;10.958;2023-05-15T13:37:03;5.80;;;3.20;;
9264;SDS011;4669;49.594;10.958;2023-05-15T13:42:05;6.53;;;3.50;;
9264;SDS011;4669;49.594;10.958;2023-05-15T13:47:07;3.58;;;3.28;;
9264;SDS011;4669;49.594;10.958;2023-05-15T13:52:10;5.65;;;3.65;;
9264;SDS011;4669;49.594;10.958;2023-05-15T13:57:12;6.10;;;3.35;;
9264;SDS011;4669;49.594;10.958;2023-05-15T14:02:14;4.13;;;3.40;;
9264;SDS011;4669;49.594;10.958;2023-05-15T14:07:17;9.70;;;3.40;;
9264;SDS011;4669;49.594;10.958;2023-05-15T14:12:22;7.20;;;4.03;;
9264;SDS011;4669;49.594;10.958;2023-05-15T14:17:24;5.07;;;3.28;;
9264;SDS011;4669;49.594;10.958;2023-05-15T14:22:28;4.32;;;3.92;;
9264;SDS011;4669;49.594;10.958;2023-05-15T14:27:30;5.50;;;3.15;;
9264;SDS011;4669;49.594;10.958;2023-05-15T14:32:32;3.92;;;3.63;;
9264;SDS011;4669;49.594;10.958;2023-05-15T14:37:36;3.78;;;3.38;;
9264;SDS011;4669;49.594;10.958;2023-05-15T14:42:38;4.60;;;3.28;;
9264;SDS011;4669;49.594;10.958;2023-05-15T14:47:40;5.00;;;3.20;;
9264;SDS011;4669;49.594;10.958;2023-05-15T14:52:43;6.07;;;3.20;;
9264;SDS011;4669;49.594;10.958;2023-05-15T14:57:45;3.33;;;2.95;;
9264;SDS011;4669;49.594;10.958;2023-05-15T15:02:48;7.03;;;4.40;;
9264;SDS011;4669;49.594;10.958;2023-05-15T15:07:58;3.88;;;2.92;;
9264;SDS011;4669;49.594;10.958;2023-05-15T15:13:01;3.40;;;3.10;;
9264;SDS011;4669;49.594;10.958;2023-05-15T15:18:04;3.90;;;2.55;;
9264;SDS011;4669;49.594;10.958;2023-05-15T15:23:08;3.58;;;3.17;;
9264;SDS011;4669;49.594;10.958;2023-05-15T15:28:10;6.35;;;3.10;;
9264;SDS011;4669;49.594;10.958;2023-05-15T15:33:13;3.80;;;2.70;;
9264;SDS011;4669;49.594;10.958;2023-05-15T15:38:16;5.65;;;3.47;;
9264;SDS011;4669;49.594;10.958;2023-05-15T15:43:18;3.40;;;2.85;;
9264;SDS011;4669;49.594;10.958;2023-05-15T15:48:21;3.95;;;3.42;;
9264;SDS011;4669;49.594;10.958;2023-05-15T15:53:25;7.47;;;3.10;;
9264;SDS011;4669;49.594;10.958;2023-05-15T15:58:27;3.58;;;2.92;;
9264;SDS011;4669;49.594;10.958;2023-05-15T16:03:29;5.30;;;3.58;;
9264;SDS011;4669;49.594;10.958;2023-05-15T16:08:33;3.35;;;3.05;;
9264;SDS011;4669;49.594;10.958;2023-05-15T16:13:35;4.95;;;3.58;;
9264;SDS011;4669;49.594;10.958;2023-05-15T16:18:37;3.30;;;3.00;;
9264;SDS011;4669;49.594;10.958;2023-05-15T16:23:41;5.40;;;3.50;;
9264;SDS011;4669;49.594;10.958;2023-05-15T16:28:43;4.38;;;3.33;;
9264;SDS011;4669;49.594;10.958;2023-05-15T16:33:45;4.28;;;3.47;;
9264;SDS011;4669;49.594;10.958;2023-05-15T16:38:50;4.43;;;3.08;;
9264;SDS011;4669;49.594;10.958;2023-05-15T16:43:52;3.92;;;3.47;;
9264;SDS011;4669;49.594;10.958;2023-05-15T16:48:54;5.35;;;3.60;;
9264;SDS011;4669;49.594;10.958;2023-05-15T16:53:58;5.85;;;3.72;;
9264;SDS011;4669;49.594;10.958;2023-05-15T16:59:00;3.75;;;3.45;;
9264;SDS011;4669;49.594;10.958;2023-05-15T17:04:02;6.53;;;3.53;;
9264;SDS011;4669;49.594;10.958;2023-05-15T17:09:06;4.60;;;3.17;;
9264;SDS011;4669;49.594;10.958;2023-05-15T17:14:08;4.32;;;3.47;;
9264;SDS011;4669;49.594;10.958;2023-05-15T17:19:10;4.45;;;3.20;;
9264;SDS011;4669;49.594;10.958;2023-05-15T17:24:14;4.28;;;3.15;;
9264;SDS011;4669;49.594;10.958;2023-05-15T17:29:16;3.10;;;2.80;;
9264;SDS011;4669;49.594;10.958;2023-05-15T17:34:18;4.50;;;3.40;;
9264;SDS011;4669;49.594;10.958;2023-05-15T17:39:21;4.50;;;3.00;;
9264;SDS011;4669;49.594;10.958;2023-05-15T17:44:24;5.40;;;4.57;;
9264;SDS011;4669;49.594;10.958;2023-05-15T17:49:30;6.43;;;4.07;;
9264;SDS011;4669;49.594;10.958;2023-05-15T17:54:34;5.75;;;3.45;;
9264;SDS011;4669;49.594;10.958;2023-05-15T17:59:36;3.28;;;2.92;;
9264;SDS011;4669;49.594;10.958;2023-05-15T18:04:38;2.53;;;2.33;;
9264;SDS011;4669;49.594;10.958;2023-05-15T18:09:42;3.08;;;2.55;;
9264;SDS011;4669;49.594;10.958;2023-05-15T18:14:44;3.40;;;2.50;;
9264;SDS011;4669;49.594;10.958;2023-05-15T18:19:46;2.92;;;2.50;;
9264;SDS011;4669;49.594;10.958;2023-05-15T18:24:49;4.80;;;2.92;;
9264;SDS011;4669;49.594;10.958;2023-05-15T18:29:51;3.08;;;2.78;;
9264;SDS011;4669;49.594;10.958;2023-05-15T18:34:53;3.55;;;2.85;;
9264;SDS011;4669;49.594;10.958;2023-05-15T18:39:57;4.45;;;2.90;;
9264;SDS011;4669;49.594;10.958;2023-05-15T18:44:59;3.00;;;2.50;;
9264;SDS011;4669;49.594;10.958;2023-05-15T18:50:01;2.97;;;2.20;;
9264;SDS011;4669;49.594;10.958;2023-05-15T18:55:05;3.50;;;2.45;;
9264;SDS011;4669;49.594;10.958;2023-05-15T19:00:09;4.00;;;2.80;;
9264;SDS011;4669;49.594;10.958;2023-05-15T19:05:12;2.85;;;2.58;;
9264;SDS011;4669;49.594;10.958;2023-05-15T19:10:16;5.43;;;2.50;;
9264;SDS011;4669;49.594;10.958;2023-05-15T19:15:18;4.13;;;2.33;;
9264;SDS011;4669;49.594;10.958;2023-05-15T19:20:20;8.68;;;2.72;;
9264;SDS011;4669;49.594;10.958;2023-05-15T19:25:23;3.67;;;2.70;;
9264;SDS011;4669;49.594;10.958;2023-05-15T19:30:25;2.70;;;2.50;;
9264;SDS011;4669;49.594;10.958;2023-05-15T19:35:28;3.00;;;2.80;;
9264;SDS011;4669;49.594;10.958;2023-05-15T19:40:31;5.75;;;2.90;;
9264;SDS011;4669;49.594;10.958;2023-05-15T19:45:34;3.60;;;3.30;;
9264;SDS011;4669;49.594;10.958;2023-05-15T19:50:39;4.05;;;2.95;;
9264;SDS011;4669;49.594;10.958;2023-05-15T19:55:42;3.45;;;3.15;;
9264;SDS011;4669;49.594;10.958;2023-05-15T20:00:44;3.58;;;3.28;;
9264;SDS011;4669;49.594;10.958;2023-05-15T20:05:47;4.63;;;3.70;;
9264;SDS011;4669;49.594;10.958;2023-05-15T20:10:51;6.07;;;3.67;;
9264;SDS011;4669;49.594;10.958;2023-05-15T20:15:53;3.20;;;2.90;;
9264;SDS011;4669;49.594;10.958;2023-05-15T20:20:56;4.20;;;3.80;;
9264;SDS011;4669;49.594;10.958;2023-05-15T20:26:00;3.38;;;3.05;;
9264;SDS011;4669;49.594;10.958;2023-05-15T20:31:02;3.25;;;2.90;;
9264;SDS011;4669;49.594;10.958;2023-05-15T20:36:04;3.42;;;2.97;;
9264;SDS011;4669;49.594;10.958;2023-05-15T20:41:08;3.67;;;3.38;;
9264;SDS011;4669;49.594;10.958;2023-05-15T20:46:10;6.75;;;4.20;;
9264;SDS011;4669;49.594;10.958;2023-05-15T20:51:12;4.53;;;4.13;;
9264;SDS011;4669;49.594;10.958;2023-05-15T20:56:16;7.35;;;6.35;;
9264;SDS011;4669;49.594;10.958;2023-05-15T21:01:18;4.05;;;3.70;;
9264;SDS011;4669;49.594;10.958;2023-05-15T21:06:20;5.60;;;4.13;;
9264;SDS011;4669;49.594;10.958;2023-05-15T21:11:24;4.35;;;3.92;;
9264;SDS011;4669;49.594;10.958;2023-05-15T21:16:26;5.13;;;4.20;;
9264;SDS011;4669;49.594;10.958;2023-05-15T21:21:28;5.35;;;4.45;;
9264;SDS011;4669;49.594;10.958;2023-05-15T21:26:31;5.45;;;4.38;;
9264;SDS011;4669;49.594;10.958;2023-05-15T21:31:33;5.53;;;4.97;;
9264;SDS011;4669;49.594;10.958;2023-05-15T21:36:36;4.72;;;4.30;;
9264;SDS011;4669;49.594;10.958;2023-05-15T21:41:39;4.75;;;4.15;;
9264;SDS011;4669;49.594;10.958;2023-05-15T21:46:41;5.05;;;4.47;;
9264;SDS011;4669;49.594;10.958;2023-05-15T21:51:43;4.97;;;4.57;;
9264;SDS011;4669;49.594;10.958;2023-05-15T21:56:47;5.43;;;4.93;;
